<?xml version="1.0" encoding="UTF-8" standalone="no" ?><gpx xmlns="http://www.topografix.com/GPX/1/1" xmlns:gpxx="http://www.garmin.com/xmlschemas/GpxExtensions/v3" xmlns:wptx1="http://www.garmin.com/xmlschemas/WaypointExtension/v1" xmlns:gpxtpx="http://www.garmin.com/xmlschemas/TrackPointExtension/v1" creator="Dakota 20" version="1.1" xmlns:xsi="http://www.w3.org/2001/XMLSchema-instance" xsi:schemaLocation="http://www.topografix.com/GPX/1/1 http://www.topografix.com/GPX/1/1/gpx.xsd http://www.garmin.com/xmlschemas/GpxExtensions/v3 http://www8.garmin.com/xmlschemas/GpxExtensionsv3.xsd http://www.garmin.com/xmlschemas/WaypointExtension/v1 http://www8.garmin.com/xmlschemas/WaypointExtensionv1.xsd http://www.garmin.com/xmlschemas/TrackPointExtension/v1 http://www.garmin.com/xmlschemas/TrackPointExtensionv1.xsd"><metadata><link href="http://www.garmin.com"><text>Garmin International</text></link><time>2014-03-12T16:21:17Z</time></metadata><trk><name>Current Track: 12 MAR 2014 10:01</name><extensions><gpxx:TrackExtension><gpxx:DisplayColor>Cyan</gpxx:DisplayColor></gpxx:TrackExtension></extensions><trkseg><trkpt lat="51.7296225205" lon="-2.0894674771"><ele>114.05</ele><time>2014-03-12T10:01:45Z</time></trkpt><trkpt lat="51.7296178266" lon="-2.0894765295"><ele>112.61</ele><time>2014-03-12T10:02:00Z</time></trkpt><trkpt lat="51.7296122108" lon="-2.0894778706"><ele>113.09</ele><time>2014-03-12T10:02:13Z</time></trkpt><trkpt lat="51.7295749113" lon="-2.0894937962"><ele>112.61</ele><time>2014-03-12T10:02:26Z</time></trkpt><trkpt lat="51.7295630090" lon="-2.0894946344"><ele>111.65</ele><time>2014-03-12T10:02:42Z</time></trkpt><trkpt lat="51.7295604944" lon="-2.0895160083"><ele>112.61</ele><time>2014-03-12T10:03:08Z</time></trkpt><trkpt lat="51.7295480054" lon="-2.0895217918"><ele>112.61</ele><time>2014-03-12T10:03:30Z</time></trkpt><trkpt lat="51.7295538727" lon="-2.0895287488"><ele>113.09</ele><time>2014-03-12T10:03:59Z</time></trkpt><trkpt lat="51.7295593210" lon="-2.0895255636"><ele>112.61</ele><time>2014-03-12T10:04:24Z</time></trkpt><trkpt lat="51.7294818722" lon="-2.0895084646"><ele>111.65</ele><time>2014-03-12T10:04:47Z</time></trkpt><trkpt lat="51.7294553854" lon="-2.0895792078"><ele>111.17</ele><time>2014-03-12T10:05:08Z</time></trkpt><trkpt lat="51.7293423135" lon="-2.0897667110"><ele>112.13</ele><time>2014-03-12T10:05:28Z</time></trkpt><trkpt lat="51.7292790301" lon="-2.0898923557"><ele>113.09</ele><time>2014-03-12T10:05:48Z</time></trkpt><trkpt lat="51.7293408886" lon="-2.0900097862"><ele>113.09</ele><time>2014-03-12T10:06:06Z</time></trkpt><trkpt lat="51.7292999849" lon="-2.0901236124"><ele>113.09</ele><time>2014-03-12T10:06:23Z</time></trkpt><trkpt lat="51.7292192671" lon="-2.0900866482"><ele>113.09</ele><time>2014-03-12T10:06:40Z</time></trkpt><trkpt lat="51.7289654631" lon="-2.0898778550"><ele>112.61</ele><time>2014-03-12T10:07:02Z</time></trkpt><trkpt lat="51.7288134154" lon="-2.0897609275"><ele>112.61</ele><time>2014-03-12T10:07:20Z</time></trkpt><trkpt lat="51.7286649719" lon="-2.0896163397"><ele>112.61</ele><time>2014-03-12T10:07:38Z</time></trkpt><trkpt lat="51.7286884412" lon="-2.0893145073"><ele>114.53</ele><time>2014-03-12T10:07:59Z</time></trkpt><trkpt lat="51.7286685761" lon="-2.0892423391"><ele>115.01</ele><time>2014-03-12T10:08:04Z</time></trkpt><trkpt lat="51.7285829969" lon="-2.0889529120"><ele>115.50</ele><time>2014-03-12T10:08:20Z</time></trkpt><trkpt lat="51.7285332922" lon="-2.0886386745"><ele>116.94</ele><time>2014-03-12T10:08:42Z</time></trkpt><trkpt lat="51.7284238245" lon="-2.0883992873"><ele>118.38</ele><time>2014-03-12T10:09:01Z</time></trkpt><trkpt lat="51.7283090763" lon="-2.0881625824"><ele>119.34</ele><time>2014-03-12T10:09:19Z</time></trkpt><trkpt lat="51.7281830963" lon="-2.0880244486"><ele>120.30</ele><time>2014-03-12T10:09:37Z</time></trkpt><trkpt lat="51.7280369159" lon="-2.0877268072"><ele>121.74</ele><time>2014-03-12T10:09:55Z</time></trkpt><trkpt lat="51.7279385123" lon="-2.0875902660"><ele>123.19</ele><time>2014-03-12T10:10:12Z</time></trkpt><trkpt lat="51.7278497480" lon="-2.0873854123"><ele>123.67</ele><time>2014-03-12T10:10:33Z</time></trkpt><trkpt lat="51.7277594749" lon="-2.0871976577"><ele>125.11</ele><time>2014-03-12T10:10:51Z</time></trkpt><trkpt lat="51.7277153861" lon="-2.0870102383"><ele>127.51</ele><time>2014-03-12T10:11:11Z</time></trkpt><trkpt lat="51.7276728898" lon="-2.0868026186"><ele>127.99</ele><time>2014-03-12T10:11:32Z</time></trkpt><trkpt lat="51.7275524419" lon="-2.0864266064"><ele>130.88</ele><time>2014-03-12T10:11:59Z</time></trkpt><trkpt lat="51.7275165673" lon="-2.0862976927"><ele>132.32</ele><time>2014-03-12T10:12:17Z</time></trkpt><trkpt lat="51.7274682038" lon="-2.0861362573"><ele>132.80</ele><time>2014-03-12T10:12:37Z</time></trkpt><trkpt lat="51.7274835426" lon="-2.0858764183"><ele>134.24</ele><time>2014-03-12T10:12:56Z</time></trkpt><trkpt lat="51.7273801938" lon="-2.0858466625"><ele>134.24</ele><time>2014-03-12T10:13:14Z</time></trkpt><trkpt lat="51.7272890825" lon="-2.0854858216"><ele>137.61</ele><time>2014-03-12T10:13:34Z</time></trkpt><trkpt lat="51.7272673734" lon="-2.0853371266"><ele>138.57</ele><time>2014-03-12T10:13:52Z</time></trkpt><trkpt lat="51.7273002304" lon="-2.0851193648"><ele>140.01</ele><time>2014-03-12T10:14:09Z</time></trkpt><trkpt lat="51.7272179201" lon="-2.0848617889"><ele>141.93</ele><time>2014-03-12T10:14:27Z</time></trkpt><trkpt lat="51.7271729093" lon="-2.0845484734"><ele>143.85</ele><time>2014-03-12T10:14:48Z</time></trkpt><trkpt lat="51.7271622643" lon="-2.0843307953"><ele>144.82</ele><time>2014-03-12T10:15:04Z</time></trkpt><trkpt lat="51.7271422315" lon="-2.0840913244"><ele>146.74</ele><time>2014-03-12T10:15:23Z</time></trkpt><trkpt lat="51.7271284014" lon="-2.0840502530"><ele>147.70</ele><time>2014-03-12T10:15:44Z</time></trkpt><trkpt lat="51.7271627672" lon="-2.0838971157"><ele>148.66</ele><time>2014-03-12T10:16:09Z</time></trkpt><trkpt lat="51.7271842249" lon="-2.0835774299"><ele>151.06</ele><time>2014-03-12T10:16:28Z</time></trkpt><trkpt lat="51.7272404674" lon="-2.0833231229"><ele>153.47</ele><time>2014-03-12T10:16:48Z</time></trkpt><trkpt lat="51.7272129748" lon="-2.0831623580"><ele>155.39</ele><time>2014-03-12T10:17:07Z</time></trkpt><trkpt lat="51.7272124719" lon="-2.0829393156"><ele>157.31</ele><time>2014-03-12T10:17:25Z</time></trkpt><trkpt lat="51.7272135615" lon="-2.0826869365"><ele>159.24</ele><time>2014-03-12T10:17:43Z</time></trkpt><trkpt lat="51.7272128910" lon="-2.0824545063"><ele>161.16</ele><time>2014-03-12T10:18:01Z</time></trkpt><trkpt lat="51.7272368632" lon="-2.0823283587"><ele>162.12</ele><time>2014-03-12T10:18:22Z</time></trkpt><trkpt lat="51.7272456642" lon="-2.0823053923"><ele>162.60</ele><time>2014-03-12T10:18:45Z</time></trkpt><trkpt lat="51.7272007372" lon="-2.0820622332"><ele>164.52</ele><time>2014-03-12T10:19:06Z</time></trkpt><trkpt lat="51.7270312551" lon="-2.0822903048"><ele>165.48</ele><time>2014-03-12T10:19:25Z</time></trkpt><trkpt lat="51.7269930337" lon="-2.0823421888"><ele>165.00</ele><time>2014-03-12T10:19:29Z</time></trkpt><trkpt lat="51.7268514633" lon="-2.0825053006"><ele>165.96</ele><time>2014-03-12T10:19:51Z</time></trkpt><trkpt lat="51.7267347872" lon="-2.0826651435"><ele>166.45</ele><time>2014-03-12T10:20:12Z</time></trkpt><trkpt lat="51.7265856732" lon="-2.0828722604"><ele>166.93</ele><time>2014-03-12T10:20:33Z</time></trkpt><trkpt lat="51.7264642194" lon="-2.0830839872"><ele>166.93</ele><time>2014-03-12T10:20:54Z</time></trkpt><trkpt lat="51.7263545003" lon="-2.0833416469"><ele>167.89</ele><time>2014-03-12T10:21:14Z</time></trkpt><trkpt lat="51.7262754589" lon="-2.0835827105"><ele>167.41</ele><time>2014-03-12T10:21:35Z</time></trkpt><trkpt lat="51.7261866946" lon="-2.0838676952"><ele>167.41</ele><time>2014-03-12T10:21:55Z</time></trkpt><trkpt lat="51.7261361517" lon="-2.0841530152"><ele>167.41</ele><time>2014-03-12T10:22:15Z</time></trkpt><trkpt lat="51.7260971759" lon="-2.0843913965"><ele>167.41</ele><time>2014-03-12T10:22:33Z</time></trkpt><trkpt lat="51.7260426097" lon="-2.0846973360"><ele>167.41</ele><time>2014-03-12T10:22:51Z</time></trkpt><trkpt lat="51.7259896360" lon="-2.0848874375"><ele>168.37</ele><time>2014-03-12T10:23:14Z</time></trkpt><trkpt lat="51.7259518337" lon="-2.0850974880"><ele>168.37</ele><time>2014-03-12T10:23:33Z</time></trkpt><trkpt lat="51.7259195633" lon="-2.0852370467"><ele>169.33</ele><time>2014-03-12T10:23:51Z</time></trkpt><trkpt lat="51.7258915678" lon="-2.0853641164"><ele>169.81</ele><time>2014-03-12T10:24:09Z</time></trkpt><trkpt lat="51.7259187251" lon="-2.0855822135"><ele>168.85</ele><time>2014-03-12T10:24:30Z</time></trkpt><trkpt lat="51.7258640751" lon="-2.0863333996"><ele>169.33</ele><time>2014-03-12T10:24:53Z</time></trkpt><trkpt lat="51.7258715350" lon="-2.0867100824"><ele>168.85</ele><time>2014-03-12T10:25:15Z</time></trkpt><trkpt lat="51.7258746363" lon="-2.0869373158"><ele>169.33</ele><time>2014-03-12T10:25:37Z</time></trkpt><trkpt lat="51.7258884665" lon="-2.0872707479"><ele>168.37</ele><time>2014-03-12T10:25:59Z</time></trkpt><trkpt lat="51.7259002011" lon="-2.0876066107"><ele>168.37</ele><time>2014-03-12T10:26:20Z</time></trkpt><trkpt lat="51.7258816771" lon="-2.0878517814"><ele>168.37</ele><time>2014-03-12T10:26:37Z</time></trkpt><trkpt lat="51.7258587107" lon="-2.0882319845"><ele>168.37</ele><time>2014-03-12T10:26:54Z</time></trkpt><trkpt lat="51.7258508317" lon="-2.0884297136"><ele>168.37</ele><time>2014-03-12T10:27:15Z</time></trkpt><trkpt lat="51.7258256022" lon="-2.0886473916"><ele>168.37</ele><time>2014-03-12T10:27:36Z</time></trkpt><trkpt lat="51.7257992830" lon="-2.0891617052"><ele>168.37</ele><time>2014-03-12T10:27:56Z</time></trkpt><trkpt lat="51.7257883027" lon="-2.0892283414"><ele>168.85</ele><time>2014-03-12T10:28:16Z</time></trkpt><trkpt lat="51.7257405259" lon="-2.0897830557"><ele>169.81</ele><time>2014-03-12T10:28:36Z</time></trkpt><trkpt lat="51.7257263605" lon="-2.0900651906"><ele>170.29</ele><time>2014-03-12T10:28:56Z</time></trkpt><trkpt lat="51.7257324792" lon="-2.0903821103"><ele>171.73</ele><time>2014-03-12T10:29:17Z</time></trkpt><trkpt lat="51.7257223371" lon="-2.0905437134"><ele>172.21</ele><time>2014-03-12T10:29:40Z</time></trkpt><trkpt lat="51.7257209122" lon="-2.0905495808"><ele>175.58</ele><time>2014-03-12T10:29:44Z</time></trkpt><trkpt lat="51.7257211637" lon="-2.0905506704"><ele>172.21</ele><time>2014-03-12T10:29:45Z</time></trkpt><trkpt lat="51.7256955151" lon="-2.0907483995"><ele>173.17</ele><time>2014-03-12T10:29:57Z</time></trkpt><trkpt lat="51.7256372608" lon="-2.0910848491"><ele>173.66</ele><time>2014-03-12T10:30:18Z</time></trkpt><trkpt lat="51.7255635001" lon="-2.0913855080"><ele>174.14</ele><time>2014-03-12T10:30:37Z</time></trkpt><trkpt lat="51.7254967801" lon="-2.0916380547"><ele>173.17</ele><time>2014-03-12T10:30:57Z</time></trkpt><trkpt lat="51.7254392803" lon="-2.0917962212"><ele>171.73</ele><time>2014-03-12T10:31:17Z</time></trkpt><trkpt lat="51.7253103666" lon="-2.0921051782"><ele>169.81</ele><time>2014-03-12T10:31:35Z</time></trkpt><trkpt lat="51.7252045870" lon="-2.0923411287"><ele>168.85</ele><time>2014-03-12T10:31:55Z</time></trkpt><trkpt lat="51.7250696383" lon="-2.0925821085"><ele>167.41</ele><time>2014-03-12T10:32:17Z</time></trkpt><trkpt lat="51.7250259686" lon="-2.0928352419"><ele>165.96</ele><time>2014-03-12T10:32:39Z</time></trkpt><trkpt lat="51.7249037605" lon="-2.0930980146"><ele>165.48</ele><time>2014-03-12T10:33:00Z</time></trkpt><trkpt lat="51.7248035967" lon="-2.0933150221"><ele>164.52</ele><time>2014-03-12T10:33:21Z</time></trkpt><trkpt lat="51.7246747669" lon="-2.0936523937"><ele>164.52</ele><time>2014-03-12T10:33:43Z</time></trkpt><trkpt lat="51.7245939653" lon="-2.0939323492"><ele>164.04</ele><time>2014-03-12T10:34:03Z</time></trkpt><trkpt lat="51.7244951427" lon="-2.0941713173"><ele>164.04</ele><time>2014-03-12T10:34:23Z</time></trkpt><trkpt lat="51.7243975773" lon="-2.0944726467"><ele>164.04</ele><time>2014-03-12T10:34:43Z</time></trkpt><trkpt lat="51.7242477089" lon="-2.0946516842"><ele>163.56</ele><time>2014-03-12T10:35:05Z</time></trkpt><trkpt lat="51.7241975013" lon="-2.0949203242"><ele>163.56</ele><time>2014-03-12T10:35:24Z</time></trkpt><trkpt lat="51.7241183762" lon="-2.0952115953"><ele>163.56</ele><time>2014-03-12T10:35:45Z</time></trkpt><trkpt lat="51.7240073159" lon="-2.0955431834"><ele>163.56</ele><time>2014-03-12T10:36:07Z</time></trkpt><trkpt lat="51.7239243351" lon="-2.0958200376"><ele>163.56</ele><time>2014-03-12T10:36:27Z</time></trkpt><trkpt lat="51.7238240875" lon="-2.0961018372"><ele>163.56</ele><time>2014-03-12T10:36:46Z</time></trkpt><trkpt lat="51.7237586249" lon="-2.0963428169"><ele>164.04</ele><time>2014-03-12T10:37:07Z</time></trkpt><trkpt lat="51.7236463074" lon="-2.0966609940"><ele>165.48</ele><time>2014-03-12T10:37:29Z</time></trkpt><trkpt lat="51.7235510051" lon="-2.0969552826"><ele>165.48</ele><time>2014-03-12T10:37:50Z</time></trkpt><trkpt lat="51.7234882247" lon="-2.0972173009"><ele>166.93</ele><time>2014-03-12T10:38:09Z</time></trkpt><trkpt lat="51.7234023940" lon="-2.0975079853"><ele>167.41</ele><time>2014-03-12T10:38:31Z</time></trkpt><trkpt lat="51.7233088519" lon="-2.0978507213"><ele>167.89</ele><time>2014-03-12T10:38:53Z</time></trkpt><trkpt lat="51.7232202552" lon="-2.0980751887"><ele>168.85</ele><time>2014-03-12T10:39:12Z</time></trkpt><trkpt lat="51.7231745739" lon="-2.0982156694"><ele>168.37</ele><time>2014-03-12T10:39:34Z</time></trkpt><trkpt lat="51.7230908386" lon="-2.0984900091"><ele>168.85</ele><time>2014-03-12T10:39:57Z</time></trkpt><trkpt lat="51.7230280582" lon="-2.0987170748"><ele>168.85</ele><time>2014-03-12T10:40:16Z</time></trkpt><trkpt lat="51.7229548842" lon="-2.0989870559"><ele>167.89</ele><time>2014-03-12T10:40:38Z</time></trkpt><trkpt lat="51.7228759266" lon="-2.0994051453"><ele>166.93</ele><time>2014-03-12T10:40:59Z</time></trkpt><trkpt lat="51.7228755075" lon="-2.0996766351"><ele>165.96</ele><time>2014-03-12T10:41:18Z</time></trkpt><trkpt lat="51.7228308320" lon="-2.0998798963"><ele>165.00</ele><time>2014-03-12T10:41:40Z</time></trkpt><trkpt lat="51.7228418961" lon="-2.1001577564"><ele>163.56</ele><time>2014-03-12T10:42:00Z</time></trkpt><trkpt lat="51.7228402197" lon="-2.1004600916"><ele>162.60</ele><time>2014-03-12T10:42:18Z</time></trkpt><trkpt lat="51.7227278184" lon="-2.1008244529"><ele>161.64</ele><time>2014-03-12T10:42:39Z</time></trkpt><trkpt lat="51.7226895131" lon="-2.1010805201"><ele>160.20</ele><time>2014-03-12T10:43:00Z</time></trkpt><trkpt lat="51.7226207815" lon="-2.1014427859"><ele>158.75</ele><time>2014-03-12T10:43:21Z</time></trkpt><trkpt lat="51.7225608509" lon="-2.1016576141"><ele>157.79</ele><time>2014-03-12T10:43:41Z</time></trkpt><trkpt lat="51.7225517984" lon="-2.1017966699"><ele>157.31</ele><time>2014-03-12T10:43:59Z</time></trkpt><trkpt lat="51.7225580849" lon="-2.1019441076"><ele>155.87</ele><time>2014-03-12T10:44:20Z</time></trkpt><trkpt lat="51.7226212006" lon="-2.1021085605"><ele>155.39</ele><time>2014-03-12T10:44:39Z</time></trkpt><trkpt lat="51.7225324363" lon="-2.1026072837"><ele>153.95</ele><time>2014-03-12T10:44:59Z</time></trkpt><trkpt lat="51.7225186899" lon="-2.1027365327"><ele>152.03</ele><time>2014-03-12T10:45:18Z</time></trkpt><trkpt lat="51.7224424146" lon="-2.1033095196"><ele>151.06</ele><time>2014-03-12T10:45:38Z</time></trkpt><trkpt lat="51.7224276625" lon="-2.1036518365"><ele>150.58</ele><time>2014-03-12T10:45:58Z</time></trkpt><trkpt lat="51.7224971484" lon="-2.1038573608"><ele>151.06</ele><time>2014-03-12T10:46:21Z</time></trkpt><trkpt lat="51.7224299256" lon="-2.1041576844"><ele>151.54</ele><time>2014-03-12T10:46:43Z</time></trkpt><trkpt lat="51.7224085517" lon="-2.1044111531"><ele>150.58</ele><time>2014-03-12T10:47:03Z</time></trkpt><trkpt lat="51.7224419955" lon="-2.1048077010"><ele>148.18</ele><time>2014-03-12T10:47:25Z</time></trkpt><trkpt lat="51.7224455997" lon="-2.1052340046"><ele>147.70</ele><time>2014-03-12T10:47:46Z</time></trkpt><trkpt lat="51.7225916963" lon="-2.1054491680"><ele>148.66</ele><time>2014-03-12T10:48:05Z</time></trkpt><trkpt lat="51.7226412334" lon="-2.1055489127"><ele>149.62</ele><time>2014-03-12T10:48:10Z</time></trkpt><trkpt lat="51.7226729169" lon="-2.1058616415"><ele>152.03</ele><time>2014-03-12T10:48:30Z</time></trkpt><trkpt lat="51.7226616852" lon="-2.1061344724"><ele>153.47</ele><time>2014-03-12T10:48:48Z</time></trkpt><trkpt lat="51.7226796225" lon="-2.1063890308"><ele>154.43</ele><time>2014-03-12T10:49:07Z</time></trkpt><trkpt lat="51.7226703186" lon="-2.1067175176"><ele>154.91</ele><time>2014-03-12T10:49:25Z</time></trkpt><trkpt lat="51.7226919439" lon="-2.1069367044"><ele>154.43</ele><time>2014-03-12T10:49:43Z</time></trkpt><trkpt lat="51.7227710690" lon="-2.1072594915"><ele>154.43</ele><time>2014-03-12T10:50:04Z</time></trkpt><trkpt lat="51.7228115536" lon="-2.1074799355"><ele>154.43</ele><time>2014-03-12T10:50:22Z</time></trkpt><trkpt lat="51.7228429858" lon="-2.1079152077"><ele>153.47</ele><time>2014-03-12T10:50:43Z</time></trkpt><trkpt lat="51.7228402197" lon="-2.1083467081"><ele>152.99</ele><time>2014-03-12T10:51:05Z</time></trkpt><trkpt lat="51.7229051795" lon="-2.1085784677"><ele>152.51</ele><time>2014-03-12T10:51:21Z</time></trkpt><trkpt lat="51.7229635175" lon="-2.1088656317"><ele>151.06</ele><time>2014-03-12T10:51:41Z</time></trkpt><trkpt lat="51.7230055947" lon="-2.1092863195"><ele>150.10</ele><time>2014-03-12T10:52:03Z</time></trkpt><trkpt lat="51.7230031639" lon="-2.1095127147"><ele>149.14</ele><time>2014-03-12T10:52:26Z</time></trkpt><trkpt lat="51.7229780182" lon="-2.1095563844"><ele>149.14</ele><time>2014-03-12T10:52:46Z</time></trkpt><trkpt lat="51.7230056785" lon="-2.1095608268"><ele>148.66</ele><time>2014-03-12T10:53:06Z</time></trkpt><trkpt lat="51.7230354343" lon="-2.1098232642"><ele>148.18</ele><time>2014-03-12T10:53:17Z</time></trkpt><trkpt lat="51.7230815347" lon="-2.1102756355"><ele>148.18</ele><time>2014-03-12T10:53:41Z</time></trkpt><trkpt lat="51.7231821176" lon="-2.1105539147"><ele>148.18</ele><time>2014-03-12T10:54:03Z</time></trkpt><trkpt lat="51.7231988814" lon="-2.1110449266"><ele>146.26</ele><time>2014-03-12T10:54:27Z</time></trkpt><trkpt lat="51.7231170740" lon="-2.1112543065"><ele>145.78</ele><time>2014-03-12T10:54:47Z</time></trkpt><trkpt lat="51.7230699677" lon="-2.1115049254"><ele>143.85</ele><time>2014-03-12T10:55:10Z</time></trkpt><trkpt lat="51.7230340093" lon="-2.1115485113"><ele>143.85</ele><time>2014-03-12T10:55:30Z</time></trkpt><trkpt lat="51.7229967099" lon="-2.1117141377"><ele>142.89</ele><time>2014-03-12T10:55:49Z</time></trkpt><trkpt lat="51.7229622602" lon="-2.1118139662"><ele>141.93</ele><time>2014-03-12T10:55:54Z</time></trkpt><trkpt lat="51.7229337618" lon="-2.1121486556"><ele>139.53</ele><time>2014-03-12T10:56:13Z</time></trkpt><trkpt lat="51.7229020782" lon="-2.1122934110"><ele>139.05</ele><time>2014-03-12T10:56:20Z</time></trkpt><trkpt lat="51.7228060216" lon="-2.1127206367"><ele>136.64</ele><time>2014-03-12T10:56:43Z</time></trkpt><trkpt lat="51.7227791157" lon="-2.1129875164"><ele>134.72</ele><time>2014-03-12T10:57:03Z</time></trkpt><trkpt lat="51.7228542175" lon="-2.1131202020"><ele>133.28</ele><time>2014-03-12T10:57:19Z</time></trkpt><trkpt lat="51.7228558939" lon="-2.1131164301"><ele>133.28</ele><time>2014-03-12T10:57:45Z</time></trkpt><trkpt lat="51.7228776868" lon="-2.1131324396"><ele>132.80</ele><time>2014-03-12T10:58:06Z</time></trkpt><trkpt lat="51.7230218556" lon="-2.1132723335"><ele>130.88</ele><time>2014-03-12T10:58:25Z</time></trkpt><trkpt lat="51.7231633421" lon="-2.1133230440"><ele>128.47</ele><time>2014-03-12T10:58:47Z</time></trkpt><trkpt lat="51.7233054154" lon="-2.1133161709"><ele>126.07</ele><time>2014-03-12T10:59:08Z</time></trkpt><trkpt lat="51.7234622408" lon="-2.1133266483"><ele>123.67</ele><time>2014-03-12T10:59:31Z</time></trkpt><trkpt lat="51.7236025538" lon="-2.1132804640"><ele>121.74</ele><time>2014-03-12T10:59:51Z</time></trkpt><trkpt lat="51.7237045616" lon="-2.1132110618"><ele>118.38</ele><time>2014-03-12T11:00:11Z</time></trkpt><trkpt lat="51.7237420287" lon="-2.1131799649"><ele>115.50</ele><time>2014-03-12T11:00:32Z</time></trkpt><trkpt lat="51.7239864450" lon="-2.1132186893"><ele>114.05</ele><time>2014-03-12T11:00:51Z</time></trkpt><trkpt lat="51.7241010256" lon="-2.1132226288"><ele>114.05</ele><time>2014-03-12T11:01:07Z</time></trkpt><trkpt lat="51.7241041269" lon="-2.1133180987"><ele>114.05</ele><time>2014-03-12T11:01:30Z</time></trkpt><trkpt lat="51.7241871078" lon="-2.1133763529"><ele>113.09</ele><time>2014-03-12T11:01:53Z</time></trkpt><trkpt lat="51.7241894547" lon="-2.1133625228"><ele>113.57</ele><time>2014-03-12T11:02:16Z</time></trkpt><trkpt lat="51.7242452782" lon="-2.1131568309"><ele>112.13</ele><time>2014-03-12T11:02:35Z</time></trkpt><trkpt lat="51.7242622934" lon="-2.1131165139"><ele>110.21</ele><time>2014-03-12T11:02:53Z</time></trkpt><trkpt lat="51.7243446875" lon="-2.1129694954"><ele>109.25</ele><time>2014-03-12T11:03:15Z</time></trkpt><trkpt lat="51.7243772093" lon="-2.1128878556"><ele>107.32</ele><time>2014-03-12T11:03:34Z</time></trkpt><trkpt lat="51.7245168518" lon="-2.1127891168"><ele>106.36</ele><time>2014-03-12T11:03:52Z</time></trkpt><trkpt lat="51.7246077117" lon="-2.1127037890"><ele>106.36</ele><time>2014-03-12T11:04:08Z</time></trkpt><trkpt lat="51.7247088812" lon="-2.1126905456"><ele>105.88</ele><time>2014-03-12T11:04:30Z</time></trkpt><trkpt lat="51.7247733381" lon="-2.1125019528"><ele>104.44</ele><time>2014-03-12T11:04:48Z</time></trkpt><trkpt lat="51.7249019165" lon="-2.1122859512"><ele>103.00</ele><time>2014-03-12T11:05:11Z</time></trkpt><trkpt lat="51.7249155790" lon="-2.1122193988"><ele>103.00</ele><time>2014-03-12T11:05:16Z</time></trkpt><trkpt lat="51.7249182612" lon="-2.1121662576"><ele>102.52</ele><time>2014-03-12T11:05:19Z</time></trkpt><trkpt lat="51.7249570694" lon="-2.1119657625"><ele>101.56</ele><time>2014-03-12T11:05:33Z</time></trkpt><trkpt lat="51.7249612603" lon="-2.1119520161"><ele>102.04</ele><time>2014-03-12T11:05:34Z</time></trkpt><trkpt lat="51.7249893397" lon="-2.1117361821"><ele>101.08</ele><time>2014-03-12T11:05:49Z</time></trkpt><trkpt lat="51.7249684688" lon="-2.1115740761"><ele>101.08</ele><time>2014-03-12T11:06:05Z</time></trkpt><trkpt lat="51.7249272298" lon="-2.1115522832"><ele>102.04</ele><time>2014-03-12T11:06:25Z</time></trkpt><trkpt lat="51.7249264754" lon="-2.1115676221"><ele>102.04</ele><time>2014-03-12T11:06:44Z</time></trkpt><trkpt lat="51.7249261402" lon="-2.1115703881"><ele>102.52</ele><time>2014-03-12T11:07:07Z</time></trkpt><trkpt lat="51.7249185126" lon="-2.1115744114"><ele>103.48</ele><time>2014-03-12T11:07:24Z</time></trkpt><trkpt lat="51.7249122262" lon="-2.1115833800"><ele>103.00</ele><time>2014-03-12T11:07:44Z</time></trkpt><trkpt lat="51.7249144893" lon="-2.1115831286"><ele>103.48</ele><time>2014-03-12T11:08:14Z</time></trkpt><trkpt lat="51.7249197699" lon="-2.1115843859"><ele>103.00</ele><time>2014-03-12T11:08:45Z</time></trkpt><trkpt lat="51.7249284871" lon="-2.1115936898"><ele>103.48</ele><time>2014-03-12T11:09:11Z</time></trkpt><trkpt lat="51.7249318399" lon="-2.1116061788"><ele>103.48</ele><time>2014-03-12T11:09:44Z</time></trkpt><trkpt lat="51.7249336001" lon="-2.1116086096"><ele>103.00</ele><time>2014-03-12T11:10:15Z</time></trkpt><trkpt lat="51.7249346059" lon="-2.1116073523"><ele>103.00</ele><time>2014-03-12T11:10:47Z</time></trkpt><trkpt lat="51.7249360308" lon="-2.1116061788"><ele>103.96</ele><time>2014-03-12T11:11:06Z</time></trkpt><trkpt lat="51.7249355279" lon="-2.1116011497"><ele>103.48</ele><time>2014-03-12T11:11:45Z</time></trkpt><trkpt lat="51.7249327619" lon="-2.1116071846"><ele>103.96</ele><time>2014-03-12T11:12:10Z</time></trkpt><trkpt lat="51.7249388807" lon="-2.1116087772"><ele>103.00</ele><time>2014-03-12T11:12:27Z</time></trkpt><trkpt lat="51.7249540519" lon="-2.1115949471"><ele>103.48</ele><time>2014-03-12T11:12:45Z</time></trkpt><trkpt lat="51.7249526270" lon="-2.1115936898"><ele>103.48</ele><time>2014-03-12T11:13:02Z</time></trkpt><trkpt lat="51.7249807902" lon="-2.1116195060"><ele>103.96</ele><time>2014-03-12T11:13:22Z</time></trkpt><trkpt lat="51.7249825504" lon="-2.1116211824"><ele>103.96</ele><time>2014-03-12T11:13:47Z</time></trkpt><trkpt lat="51.7249792814" lon="-2.1116122976"><ele>104.44</ele><time>2014-03-12T11:14:18Z</time></trkpt><trkpt lat="51.7249771859" lon="-2.1116003953"><ele>104.44</ele><time>2014-03-12T11:14:43Z</time></trkpt><trkpt lat="51.7249748390" lon="-2.1116030775"><ele>104.44</ele><time>2014-03-12T11:15:08Z</time></trkpt><trkpt lat="51.7249989789" lon="-2.1116099507"><ele>104.44</ele><time>2014-03-12T11:15:22Z</time></trkpt><trkpt lat="51.7250102945" lon="-2.1115782671"><ele>104.44</ele><time>2014-03-12T11:15:39Z</time></trkpt><trkpt lat="51.7250287347" lon="-2.1114550531"><ele>103.96</ele><time>2014-03-12T11:15:50Z</time></trkpt><trkpt lat="51.7250631843" lon="-2.1111724991"><ele>104.44</ele><time>2014-03-12T11:16:07Z</time></trkpt><trkpt lat="51.7250755057" lon="-2.1109671425"><ele>103.96</ele><time>2014-03-12T11:16:24Z</time></trkpt><trkpt lat="51.7250883300" lon="-2.1107294317"><ele>103.96</ele><time>2014-03-12T11:16:38Z</time></trkpt><trkpt lat="51.7250817921" lon="-2.1104222350"><ele>104.44</ele><time>2014-03-12T11:16:57Z</time></trkpt><trkpt lat="51.7250813730" lon="-2.1104066446"><ele>104.92</ele><time>2014-03-12T11:16:58Z</time></trkpt><trkpt lat="51.7250814568" lon="-2.1101040579"><ele>105.88</ele><time>2014-03-12T11:17:16Z</time></trkpt><trkpt lat="51.7250719853" lon="-2.1098634135"><ele>105.88</ele><time>2014-03-12T11:17:34Z</time></trkpt><trkpt lat="51.7250597477" lon="-2.1097157244"><ele>104.44</ele><time>2014-03-12T11:17:48Z</time></trkpt><trkpt lat="51.7250741646" lon="-2.1094990522"><ele>102.52</ele><time>2014-03-12T11:18:06Z</time></trkpt><trkpt lat="51.7250708956" lon="-2.1093042567"><ele>99.63</ele><time>2014-03-12T11:18:18Z</time></trkpt><trkpt lat="51.7250828817" lon="-2.1090999898"><ele>98.19</ele><time>2014-03-12T11:18:37Z</time></trkpt><trkpt lat="51.7250725720" lon="-2.1090719942"><ele>97.71</ele><time>2014-03-12T11:19:00Z</time></trkpt><trkpt lat="51.7250575684" lon="-2.1091006603"><ele>97.23</ele><time>2014-03-12T11:19:21Z</time></trkpt><trkpt lat="51.7250408884" lon="-2.1089417394"><ele>95.79</ele><time>2014-03-12T11:19:38Z</time></trkpt><trkpt lat="51.7250340153" lon="-2.1086847503"><ele>93.39</ele><time>2014-03-12T11:19:57Z</time></trkpt><trkpt lat="51.7250216939" lon="-2.1083738655"><ele>92.42</ele><time>2014-03-12T11:20:16Z</time></trkpt><trkpt lat="51.7249974702" lon="-2.1082209796"><ele>92.42</ele><time>2014-03-12T11:20:31Z</time></trkpt><trkpt lat="51.7249191832" lon="-2.1081438661"><ele>91.94</ele><time>2014-03-12T11:20:49Z</time></trkpt><trkpt lat="51.7249658704" lon="-2.1079474781"><ele>92.42</ele><time>2014-03-12T11:21:05Z</time></trkpt><trkpt lat="51.7249407247" lon="-2.1077396907"><ele>91.46</ele><time>2014-03-12T11:21:20Z</time></trkpt><trkpt lat="51.7249014135" lon="-2.1074699610"><ele>91.94</ele><time>2014-03-12T11:21:39Z</time></trkpt><trkpt lat="51.7248888407" lon="-2.1072060149"><ele>91.94</ele><time>2014-03-12T11:21:58Z</time></trkpt><trkpt lat="51.7248878349" lon="-2.1068926156"><ele>91.94</ele><time>2014-03-12T11:22:18Z</time></trkpt><trkpt lat="51.7248851527" lon="-2.1068896819"><ele>82.33</ele><time>2014-03-12T11:22:19Z</time></trkpt><trkpt lat="51.7248852365" lon="-2.1068904363"><ele>95.79</ele><time>2014-03-12T11:22:20Z</time></trkpt><trkpt lat="51.7248856556" lon="-2.1068916097"><ele>92.42</ele><time>2014-03-12T11:22:21Z</time></trkpt><trkpt lat="51.7249121424" lon="-2.1066886000"><ele>92.42</ele><time>2014-03-12T11:22:37Z</time></trkpt><trkpt lat="51.7249247991" lon="-2.1066171024"><ele>91.94</ele><time>2014-03-12T11:22:56Z</time></trkpt><trkpt lat="51.7249118071" lon="-2.1066158451"><ele>92.42</ele><time>2014-03-12T11:23:19Z</time></trkpt><trkpt lat="51.7249262240" lon="-2.1066373028"><ele>92.90</ele><time>2014-03-12T11:23:43Z</time></trkpt><trkpt lat="51.7249275651" lon="-2.1066554915"><ele>92.90</ele><time>2014-03-12T11:24:12Z</time></trkpt><trkpt lat="51.7249071132" lon="-2.1065934654"><ele>92.90</ele><time>2014-03-12T11:24:37Z</time></trkpt><trkpt lat="51.7249289062" lon="-2.1063050441"><ele>91.46</ele><time>2014-03-12T11:24:53Z</time></trkpt><trkpt lat="51.7249268107" lon="-2.1061335504"><ele>90.02</ele><time>2014-03-12T11:25:03Z</time></trkpt><trkpt lat="51.7249211948" lon="-2.1059529204"><ele>89.54</ele><time>2014-03-12T11:25:20Z</time></trkpt><trkpt lat="51.7249398027" lon="-2.1058713645"><ele>89.54</ele><time>2014-03-12T11:25:36Z</time></trkpt><trkpt lat="51.7249887530" lon="-2.1057560295"><ele>90.02</ele><time>2014-03-12T11:25:51Z</time></trkpt><trkpt lat="51.7250590771" lon="-2.1054894011"><ele>90.98</ele><time>2014-03-12T11:26:08Z</time></trkpt><trkpt lat="51.7251537088" lon="-2.1052982099"><ele>90.98</ele><time>2014-03-12T11:26:24Z</time></trkpt><trkpt lat="51.7251988035" lon="-2.1051923465"><ele>90.98</ele><time>2014-03-12T11:26:43Z</time></trkpt><trkpt lat="51.7252447363" lon="-2.1049118042"><ele>90.02</ele><time>2014-03-12T11:27:01Z</time></trkpt><trkpt lat="51.7252635956" lon="-2.1047005802"><ele>88.58</ele><time>2014-03-12T11:27:20Z</time></trkpt><trkpt lat="51.7252832931" lon="-2.1043526474"><ele>87.14</ele><time>2014-03-12T11:27:39Z</time></trkpt><trkpt lat="51.7253048345" lon="-2.1042019408"><ele>87.14</ele><time>2014-03-12T11:27:57Z</time></trkpt><trkpt lat="51.7253178265" lon="-2.1041294374"><ele>87.62</ele><time>2014-03-12T11:28:18Z</time></trkpt><trkpt lat="51.7253276333" lon="-2.1039820835"><ele>87.62</ele><time>2014-03-12T11:28:37Z</time></trkpt><trkpt lat="51.7253110372" lon="-2.1038163733"><ele>87.62</ele><time>2014-03-12T11:28:54Z</time></trkpt><trkpt lat="51.7254626658" lon="-2.1037669200"><ele>87.62</ele><time>2014-03-12T11:29:13Z</time></trkpt><trkpt lat="51.7256329022" lon="-2.1036509983"><ele>90.02</ele><time>2014-03-12T11:29:35Z</time></trkpt><trkpt lat="51.7256535217" lon="-2.1036662534"><ele>90.50</ele><time>2014-03-12T11:29:56Z</time></trkpt><trkpt lat="51.7256702855" lon="-2.1036556922"><ele>90.50</ele><time>2014-03-12T11:30:16Z</time></trkpt><trkpt lat="51.7256352492" lon="-2.1036787424"><ele>90.50</ele><time>2014-03-12T11:30:40Z</time></trkpt><trkpt lat="51.7255900707" lon="-2.1037146170"><ele>90.50</ele><time>2014-03-12T11:30:53Z</time></trkpt><trkpt lat="51.7256484926" lon="-2.1037064027"><ele>90.98</ele><time>2014-03-12T11:31:14Z</time></trkpt><trkpt lat="51.7256508395" lon="-2.1036820114"><ele>90.50</ele><time>2014-03-12T11:31:37Z</time></trkpt><trkpt lat="51.7256945930" lon="-2.1036756411"><ele>88.58</ele><time>2014-03-12T11:31:48Z</time></trkpt><trkpt lat="51.7257192358" lon="-2.1036776528"><ele>88.58</ele><time>2014-03-12T11:31:50Z</time></trkpt><trkpt lat="51.7257940024" lon="-2.1038078237"><ele>88.10</ele><time>2014-03-12T11:31:59Z</time></trkpt><trkpt lat="51.7258435395" lon="-2.1042496338"><ele>88.10</ele><time>2014-03-12T11:32:18Z</time></trkpt><trkpt lat="51.7258753907" lon="-2.1043385658"><ele>88.10</ele><time>2014-03-12T11:32:33Z</time></trkpt><trkpt lat="51.7258826829" lon="-2.1043456905"><ele>88.58</ele><time>2014-03-12T11:32:34Z</time></trkpt><trkpt lat="51.7259100918" lon="-2.1044486202"><ele>87.62</ele><time>2014-03-12T11:32:49Z</time></trkpt><trkpt lat="51.7259858642" lon="-2.1046372969"><ele>88.10</ele><time>2014-03-12T11:33:09Z</time></trkpt><trkpt lat="51.7260698508" lon="-2.1048491914"><ele>88.10</ele><time>2014-03-12T11:33:25Z</time></trkpt><trkpt lat="51.7261092458" lon="-2.1049226169"><ele>88.58</ele><time>2014-03-12T11:33:43Z</time></trkpt><trkpt lat="51.7262576893" lon="-2.1051110420"><ele>90.02</ele><time>2014-03-12T11:34:03Z</time></trkpt><trkpt lat="51.7263662349" lon="-2.1051443182"><ele>91.94</ele><time>2014-03-12T11:34:21Z</time></trkpt><trkpt lat="51.7265834939" lon="-2.1050495189"><ele>94.83</ele><time>2014-03-12T11:34:43Z</time></trkpt><trkpt lat="51.7266242299" lon="-2.1050644387"><ele>97.23</ele><time>2014-03-12T11:35:07Z</time></trkpt><trkpt lat="51.7268023454" lon="-2.1051751636"><ele>98.19</ele><time>2014-03-12T11:35:30Z</time></trkpt><trkpt lat="51.7268603481" lon="-2.1052226890"><ele>100.11</ele><time>2014-03-12T11:35:54Z</time></trkpt><trkpt lat="51.7268590908" lon="-2.1052742377"><ele>100.11</ele><time>2014-03-12T11:36:14Z</time></trkpt><trkpt lat="51.7268906068" lon="-2.1054391935"><ele>103.48</ele><time>2014-03-12T11:36:27Z</time></trkpt><trkpt lat="51.7268761061" lon="-2.1054800134"><ele>104.44</ele><time>2014-03-12T11:36:46Z</time></trkpt><trkpt lat="51.7268381361" lon="-2.1056444664"><ele>106.36</ele><time>2014-03-12T11:37:03Z</time></trkpt><trkpt lat="51.7267583404" lon="-2.1057844441"><ele>109.73</ele><time>2014-03-12T11:37:18Z</time></trkpt><trkpt lat="51.7267300934" lon="-2.1058753040"><ele>110.69</ele><time>2014-03-12T11:37:38Z</time></trkpt><trkpt lat="51.7267195322" lon="-2.1058915649"><ele>111.17</ele><time>2014-03-12T11:37:59Z</time></trkpt><trkpt lat="51.7267080490" lon="-2.1059079096"><ele>111.65</ele><time>2014-03-12T11:38:28Z</time></trkpt><trkpt lat="51.7267073784" lon="-2.1059405990"><ele>111.65</ele><time>2014-03-12T11:38:58Z</time></trkpt><trkpt lat="51.7266550753" lon="-2.1061657369"><ele>114.05</ele><time>2014-03-12T11:39:15Z</time></trkpt><trkpt lat="51.7266984098" lon="-2.1063582692"><ele>115.98</ele><time>2014-03-12T11:39:30Z</time></trkpt><trkpt lat="51.7267778702" lon="-2.1065644640"><ele>119.34</ele><time>2014-03-12T11:39:45Z</time></trkpt><trkpt lat="51.7268290836" lon="-2.1067362092"><ele>119.34</ele><time>2014-03-12T11:40:03Z</time></trkpt><trkpt lat="51.7268317658" lon="-2.1067484468"><ele>120.78</ele><time>2014-03-12T11:40:21Z</time></trkpt><trkpt lat="51.7268512957" lon="-2.1067735925"><ele>120.78</ele><time>2014-03-12T11:40:36Z</time></trkpt><trkpt lat="51.7268668022" lon="-2.1068021748"><ele>121.26</ele><time>2014-03-12T11:40:52Z</time></trkpt><trkpt lat="51.7269640323" lon="-2.1070949547"><ele>123.19</ele><time>2014-03-12T11:41:11Z</time></trkpt><trkpt lat="51.7270470131" lon="-2.1073158178"><ele>124.63</ele><time>2014-03-12T11:41:27Z</time></trkpt><trkpt lat="51.7271775194" lon="-2.1075131278"><ele>127.03</ele><time>2014-03-12T11:41:46Z</time></trkpt><trkpt lat="51.7272363603" lon="-2.1076044906"><ele>127.03</ele><time>2014-03-12T11:42:02Z</time></trkpt><trkpt lat="51.7273549642" lon="-2.1076375153"><ele>128.47</ele><time>2014-03-12T11:42:20Z</time></trkpt><trkpt lat="51.7275249492" lon="-2.1077568736"><ele>130.88</ele><time>2014-03-12T11:42:44Z</time></trkpt><trkpt lat="51.7276939284" lon="-2.1078394353"><ele>132.80</ele><time>2014-03-12T11:43:06Z</time></trkpt><trkpt lat="51.7278343253" lon="-2.1079021320"><ele>133.76</ele><time>2014-03-12T11:43:22Z</time></trkpt><trkpt lat="51.7279495765" lon="-2.1079671755"><ele>134.72</ele><time>2014-03-12T11:43:34Z</time></trkpt><trkpt lat="51.7280802503" lon="-2.1080048941"><ele>136.16</ele><time>2014-03-12T11:43:50Z</time></trkpt><trkpt lat="51.7282146122" lon="-2.1080290340"><ele>137.13</ele><time>2014-03-12T11:44:04Z</time></trkpt><trkpt lat="51.7283639777" lon="-2.1081094164"><ele>139.53</ele><time>2014-03-12T11:44:21Z</time></trkpt><trkpt lat="51.7283964995" lon="-2.1081160381"><ele>140.49</ele><time>2014-03-12T11:44:43Z</time></trkpt><trkpt lat="51.7285073921" lon="-2.1081546787"><ele>141.93</ele><time>2014-03-12T11:45:00Z</time></trkpt><trkpt lat="51.7285327055" lon="-2.1081627253"><ele>141.93</ele><time>2014-03-12T11:45:21Z</time></trkpt><trkpt lat="51.7285487987" lon="-2.1081773937"><ele>141.93</ele><time>2014-03-12T11:45:41Z</time></trkpt><trkpt lat="51.7285506427" lon="-2.1081717778"><ele>142.41</ele><time>2014-03-12T11:46:06Z</time></trkpt><trkpt lat="51.7285567615" lon="-2.1081881225"><ele>141.93</ele><time>2014-03-12T11:46:33Z</time></trkpt><trkpt lat="51.7285560071" lon="-2.1081826743"><ele>142.89</ele><time>2014-03-12T11:46:52Z</time></trkpt><trkpt lat="51.7285570968" lon="-2.1081752144"><ele>142.89</ele><time>2014-03-12T11:47:20Z</time></trkpt><trkpt lat="51.7285638023" lon="-2.1081960015"><ele>142.89</ele><time>2014-03-12T11:47:41Z</time></trkpt><trkpt lat="51.7285994254" lon="-2.1082694270"><ele>143.85</ele><time>2014-03-12T11:47:52Z</time></trkpt><trkpt lat="51.7286787182" lon="-2.1083788108"><ele>147.22</ele><time>2014-03-12T11:48:08Z</time></trkpt><trkpt lat="51.7287663091" lon="-2.1084934752"><ele>148.18</ele><time>2014-03-12T11:48:18Z</time></trkpt><trkpt lat="51.7288710829" lon="-2.1086362191"><ele>150.10</ele><time>2014-03-12T11:48:31Z</time></trkpt><trkpt lat="51.7289274093" lon="-2.1086898632"><ele>151.06</ele><time>2014-03-12T11:48:38Z</time></trkpt><trkpt lat="51.7289502919" lon="-2.1087084711"><ele>152.03</ele><time>2014-03-12T11:48:41Z</time></trkpt><trkpt lat="51.7289657146" lon="-2.1087259054"><ele>151.54</ele><time>2014-03-12T11:48:43Z</time></trkpt><trkpt lat="51.7291020881" lon="-2.1088245604"><ele>153.47</ele><time>2014-03-12T11:48:57Z</time></trkpt><trkpt lat="51.7291093804" lon="-2.1088315174"><ele>153.47</ele><time>2014-03-12T11:48:58Z</time></trkpt><trkpt lat="51.7291297484" lon="-2.1088435873"><ele>153.47</ele><time>2014-03-12T11:49:00Z</time></trkpt><trkpt lat="51.7291612644" lon="-2.1088891849"><ele>154.91</ele><time>2014-03-12T11:49:05Z</time></trkpt><trkpt lat="51.7292716540" lon="-2.1089721657"><ele>155.39</ele><time>2014-03-12T11:49:18Z</time></trkpt><trkpt lat="51.7292845622" lon="-2.1089916117"><ele>156.35</ele><time>2014-03-12T11:49:20Z</time></trkpt><trkpt lat="51.7293313332" lon="-2.1090502013"><ele>156.83</ele><time>2014-03-12T11:49:26Z</time></trkpt><trkpt lat="51.7293568980" lon="-2.1090895124"><ele>156.83</ele><time>2014-03-12T11:49:30Z</time></trkpt><trkpt lat="51.7294335086" lon="-2.1091952920"><ele>158.27</ele><time>2014-03-12T11:49:42Z</time></trkpt><trkpt lat="51.7294570617" lon="-2.1091826353"><ele>158.27</ele><time>2014-03-12T11:50:02Z</time></trkpt><trkpt lat="51.7295060959" lon="-2.1092095412"><ele>159.24</ele><time>2014-03-12T11:50:20Z</time></trkpt><trkpt lat="51.7295210995" lon="-2.1091624349"><ele>158.75</ele><time>2014-03-12T11:50:27Z</time></trkpt><trkpt lat="51.7296052538" lon="-2.1090405621"><ele>159.24</ele><time>2014-03-12T11:50:39Z</time></trkpt><trkpt lat="51.7296514381" lon="-2.1089987364"><ele>159.24</ele><time>2014-03-12T11:50:45Z</time></trkpt><trkpt lat="51.7297326587" lon="-2.1089487802"><ele>159.24</ele><time>2014-03-12T11:50:53Z</time></trkpt><trkpt lat="51.7298122030" lon="-2.1089139115"><ele>159.72</ele><time>2014-03-12T11:51:00Z</time></trkpt><trkpt lat="51.7299480736" lon="-2.1088000853"><ele>159.24</ele><time>2014-03-12T11:51:15Z</time></trkpt><trkpt lat="51.7300416995" lon="-2.1087166015"><ele>158.75</ele><time>2014-03-12T11:51:28Z</time></trkpt><trkpt lat="51.7301093414" lon="-2.1086418349"><ele>158.27</ele><time>2014-03-12T11:51:42Z</time></trkpt><trkpt lat="51.7302306276" lon="-2.1085335407"><ele>157.79</ele><time>2014-03-12T11:51:56Z</time></trkpt><trkpt lat="51.7303547636" lon="-2.1084638033"><ele>157.31</ele><time>2014-03-12T11:52:09Z</time></trkpt><trkpt lat="51.7304526642" lon="-2.1083900426"><ele>158.27</ele><time>2014-03-12T11:52:21Z</time></trkpt><trkpt lat="51.7305832542" lon="-2.1083029546"><ele>159.24</ele><time>2014-03-12T11:52:38Z</time></trkpt><trkpt lat="51.7306498904" lon="-2.1083024517"><ele>160.68</ele><time>2014-03-12T11:52:53Z</time></trkpt><trkpt lat="51.7306632176" lon="-2.1083658189"><ele>162.12</ele><time>2014-03-12T11:53:10Z</time></trkpt><trkpt lat="51.7307256628" lon="-2.1085177828"><ele>164.04</ele><time>2014-03-12T11:53:25Z</time></trkpt><trkpt lat="51.7308084760" lon="-2.1086223051"><ele>165.96</ele><time>2014-03-12T11:53:40Z</time></trkpt><trkpt lat="51.7308975756" lon="-2.1086562518"><ele>167.41</ele><time>2014-03-12T11:53:56Z</time></trkpt><trkpt lat="51.7309743538" lon="-2.1086926293"><ele>168.85</ele><time>2014-03-12T11:54:07Z</time></trkpt><trkpt lat="51.7310860008" lon="-2.1087549068"><ele>170.29</ele><time>2014-03-12T11:54:22Z</time></trkpt><trkpt lat="51.7311662994" lon="-2.1087076329"><ele>170.77</ele><time>2014-03-12T11:54:35Z</time></trkpt><trkpt lat="51.7312860768" lon="-2.1087146737"><ele>172.21</ele><time>2014-03-12T11:54:50Z</time></trkpt><trkpt lat="51.7313880846" lon="-2.1086710878"><ele>173.17</ele><time>2014-03-12T11:55:04Z</time></trkpt><trkpt lat="51.7314911820" lon="-2.1086096484"><ele>173.66</ele><time>2014-03-12T11:55:17Z</time></trkpt><trkpt lat="51.7315631825" lon="-2.1085867658"><ele>174.14</ele><time>2014-03-12T11:55:33Z</time></trkpt><trkpt lat="51.7316014040" lon="-2.1085751988"><ele>173.66</ele><time>2014-03-12T11:55:37Z</time></trkpt><trkpt lat="51.7316744104" lon="-2.1085218899"><ele>174.14</ele><time>2014-03-12T11:55:51Z</time></trkpt><trkpt lat="51.7317060102" lon="-2.1085081436"><ele>174.14</ele><time>2014-03-12T11:56:10Z</time></trkpt><trkpt lat="51.7317599058" lon="-2.1084897872"><ele>174.14</ele><time>2014-03-12T11:56:14Z</time></trkpt><trkpt lat="51.7318029050" lon="-2.1084852610"><ele>174.14</ele><time>2014-03-12T11:56:18Z</time></trkpt><trkpt lat="51.7318358459" lon="-2.1084657311"><ele>174.62</ele><time>2014-03-12T11:56:21Z</time></trkpt><trkpt lat="51.7318671104" lon="-2.1084493026"><ele>174.14</ele><time>2014-03-12T11:56:24Z</time></trkpt><trkpt lat="51.7319855466" lon="-2.1083835885"><ele>174.14</ele><time>2014-03-12T11:56:36Z</time></trkpt><trkpt lat="51.7320553679" lon="-2.1083362307"><ele>174.14</ele><time>2014-03-12T11:56:44Z</time></trkpt><trkpt lat="51.7320836987" lon="-2.1083196346"><ele>174.14</ele><time>2014-03-12T11:56:47Z</time></trkpt><trkpt lat="51.7321153823" lon="-2.1083198022"><ele>174.14</ele><time>2014-03-12T11:56:50Z</time></trkpt><trkpt lat="51.7322562821" lon="-2.1082699299"><ele>174.14</ele><time>2014-03-12T11:57:04Z</time></trkpt><trkpt lat="51.7322860379" lon="-2.1082543395"><ele>174.62</ele><time>2014-03-12T11:57:07Z</time></trkpt><trkpt lat="51.7323605530" lon="-2.1082239971"><ele>174.62</ele><time>2014-03-12T11:57:14Z</time></trkpt><trkpt lat="51.7324190587" lon="-2.1082084067"><ele>175.10</ele><time>2014-03-12T11:57:20Z</time></trkpt><trkpt lat="51.7325082421" lon="-2.1081709396"><ele>175.10</ele><time>2014-03-12T11:57:29Z</time></trkpt><trkpt lat="51.7326171231" lon="-2.1081520803"><ele>174.62</ele><time>2014-03-12T11:57:38Z</time></trkpt><trkpt lat="51.7327421810" lon="-2.1080683451"><ele>174.62</ele><time>2014-03-12T11:57:52Z</time></trkpt><trkpt lat="51.7328748666" lon="-2.1079688519"><ele>173.66</ele><time>2014-03-12T11:58:06Z</time></trkpt><trkpt lat="51.7329920456" lon="-2.1078863740"><ele>173.66</ele><time>2014-03-12T11:58:20Z</time></trkpt><trkpt lat="51.7331031058" lon="-2.1077698655"><ele>173.17</ele><time>2014-03-12T11:58:35Z</time></trkpt><trkpt lat="51.7332451791" lon="-2.1076212544"><ele>173.66</ele><time>2014-03-12T11:58:52Z</time></trkpt><trkpt lat="51.7333563231" lon="-2.1074942686"><ele>174.14</ele><time>2014-03-12T11:59:07Z</time></trkpt><trkpt lat="51.7334658746" lon="-2.1073620021"><ele>174.62</ele><time>2014-03-12T11:59:21Z</time></trkpt><trkpt lat="51.7335236259" lon="-2.1072703879"><ele>174.14</ele><time>2014-03-12T11:59:29Z</time></trkpt><trkpt lat="51.7335455865" lon="-2.1072501875"><ele>174.62</ele><time>2014-03-12T11:59:32Z</time></trkpt><trkpt lat="51.7336341832" lon="-2.1071118861"><ele>173.66</ele><time>2014-03-12T11:59:45Z</time></trkpt><trkpt lat="51.7336661182" lon="-2.1070888359"><ele>173.66</ele><time>2014-03-12T11:59:48Z</time></trkpt><trkpt lat="51.7337724846" lon="-2.1069778595"><ele>173.66</ele><time>2014-03-12T12:00:02Z</time></trkpt><trkpt lat="51.7338883225" lon="-2.1068390552"><ele>172.69</ele><time>2014-03-12T12:00:14Z</time></trkpt><trkpt lat="51.7340024002" lon="-2.1067632828"><ele>173.17</ele><time>2014-03-12T12:00:26Z</time></trkpt><trkpt lat="51.7340946011" lon="-2.1066534799"><ele>171.73</ele><time>2014-03-12T12:00:40Z</time></trkpt><trkpt lat="51.7341493350" lon="-2.1065584291"><ele>171.73</ele><time>2014-03-12T12:00:59Z</time></trkpt><trkpt lat="51.7342769075" lon="-2.1063570119"><ele>169.33</ele><time>2014-03-12T12:01:18Z</time></trkpt><trkpt lat="51.7344250996" lon="-2.1062509809"><ele>168.37</ele><time>2014-03-12T12:01:35Z</time></trkpt><trkpt lat="51.7345504928" lon="-2.1061689220"><ele>166.93</ele><time>2014-03-12T12:01:50Z</time></trkpt><trkpt lat="51.7346223257" lon="-2.1061045490"><ele>166.45</ele><time>2014-03-12T12:01:59Z</time></trkpt><trkpt lat="51.7347061448" lon="-2.1060484741"><ele>165.96</ele><time>2014-03-12T12:02:08Z</time></trkpt><trkpt lat="51.7348146066" lon="-2.1060227416"><ele>165.96</ele><time>2014-03-12T12:02:23Z</time></trkpt><trkpt lat="51.7348938156" lon="-2.1059784014"><ele>165.96</ele><time>2014-03-12T12:02:36Z</time></trkpt><trkpt lat="51.7349231523" lon="-2.1059726179"><ele>164.52</ele><time>2014-03-12T12:02:40Z</time></trkpt><trkpt lat="51.7350355536" lon="-2.1059247572"><ele>164.52</ele><time>2014-03-12T12:02:52Z</time></trkpt><trkpt lat="51.7351176124" lon="-2.1058826800"><ele>164.52</ele><time>2014-03-12T12:03:06Z</time></trkpt><trkpt lat="51.7352366354" lon="-2.1057911497"><ele>163.56</ele><time>2014-03-12T12:03:21Z</time></trkpt><trkpt lat="51.7352606077" lon="-2.1057924908"><ele>163.56</ele><time>2014-03-12T12:03:37Z</time></trkpt><trkpt lat="51.7354109790" lon="-2.1057017148"><ele>162.60</ele><time>2014-03-12T12:03:51Z</time></trkpt><trkpt lat="51.7355392221" lon="-2.1056402754"><ele>162.60</ele><time>2014-03-12T12:04:06Z</time></trkpt><trkpt lat="51.7356396373" lon="-2.1055196598"><ele>161.64</ele><time>2014-03-12T12:04:19Z</time></trkpt><trkpt lat="51.7358383723" lon="-2.1053287201"><ele>160.20</ele><time>2014-03-12T12:04:33Z</time></trkpt><trkpt lat="51.7359927669" lon="-2.1051346790"><ele>158.75</ele><time>2014-03-12T12:04:48Z</time></trkpt><trkpt lat="51.7360756639" lon="-2.1049303282"><ele>157.31</ele><time>2014-03-12T12:05:02Z</time></trkpt><trkpt lat="51.7361504305" lon="-2.1047573257"><ele>156.83</ele><time>2014-03-12T12:05:18Z</time></trkpt><trkpt lat="51.7362648435" lon="-2.1047665458"><ele>155.39</ele><time>2014-03-12T12:05:33Z</time></trkpt><trkpt lat="51.7363773286" lon="-2.1048551425"><ele>152.99</ele><time>2014-03-12T12:05:50Z</time></trkpt><trkpt lat="51.7365676817" lon="-2.1049662028"><ele>150.10</ele><time>2014-03-12T12:06:08Z</time></trkpt><trkpt lat="51.7366637383" lon="-2.1050002333"><ele>148.66</ele><time>2014-03-12T12:06:19Z</time></trkpt><trkpt lat="51.7367307935" lon="-2.1050166618"><ele>148.18</ele><time>2014-03-12T12:06:33Z</time></trkpt><trkpt lat="51.7367368285" lon="-2.1050283127"><ele>148.18</ele><time>2014-03-12T12:06:34Z</time></trkpt><trkpt lat="51.7367514968" lon="-2.1050583199"><ele>147.22</ele><time>2014-03-12T12:06:37Z</time></trkpt><trkpt lat="51.7368992697" lon="-2.1050636843"><ele>144.82</ele><time>2014-03-12T12:06:53Z</time></trkpt><trkpt lat="51.7369714379" lon="-2.1050903387"><ele>144.82</ele><time>2014-03-12T12:07:01Z</time></trkpt><trkpt lat="51.7370844260" lon="-2.1051016543"><ele>143.85</ele><time>2014-03-12T12:07:11Z</time></trkpt><trkpt lat="51.7372356355" lon="-2.1050306596"><ele>143.37</ele><time>2014-03-12T12:07:27Z</time></trkpt><trkpt lat="51.7373382300" lon="-2.1048812103"><ele>143.37</ele><time>2014-03-12T12:07:41Z</time></trkpt><trkpt lat="51.7374767829" lon="-2.1046929527"><ele>144.34</ele><time>2014-03-12T12:07:57Z</time></trkpt><trkpt lat="51.7375822272" lon="-2.1046523005"><ele>144.34</ele><time>2014-03-12T12:08:09Z</time></trkpt><trkpt lat="51.7375822272" lon="-2.1046383027"><ele>144.34</ele><time>2014-03-12T12:08:31Z</time></trkpt><trkpt lat="51.7376056965" lon="-2.1044399869"><ele>143.37</ele><time>2014-03-12T12:08:44Z</time></trkpt><trkpt lat="51.7376339436" lon="-2.1042047068"><ele>141.93</ele><time>2014-03-12T12:09:00Z</time></trkpt><trkpt lat="51.7376732547" lon="-2.1040881146"><ele>140.97</ele><time>2014-03-12T12:09:10Z</time></trkpt><trkpt lat="51.7377119791" lon="-2.1039163694"><ele>140.01</ele><time>2014-03-12T12:09:19Z</time></trkpt><trkpt lat="51.7378375400" lon="-2.1037514135"><ele>139.05</ele><time>2014-03-12T12:09:32Z</time></trkpt><trkpt lat="51.7378625181" lon="-2.1037296206"><ele>139.05</ele><time>2014-03-12T12:09:34Z</time></trkpt><trkpt lat="51.7378741689" lon="-2.1036883816"><ele>139.05</ele><time>2014-03-12T12:09:36Z</time></trkpt><trkpt lat="51.7379150726" lon="-2.1035862062"><ele>138.57</ele><time>2014-03-12T12:09:41Z</time></trkpt><trkpt lat="51.7379603349" lon="-2.1035141218"><ele>138.57</ele><time>2014-03-12T12:09:46Z</time></trkpt><trkpt lat="51.7380425613" lon="-2.1032975335"><ele>138.57</ele><time>2014-03-12T12:10:00Z</time></trkpt><trkpt lat="51.7381527834" lon="-2.1031665243"><ele>139.05</ele><time>2014-03-12T12:10:13Z</time></trkpt><trkpt lat="51.7383054178" lon="-2.1030772571"><ele>139.53</ele><time>2014-03-12T12:10:27Z</time></trkpt><trkpt lat="51.7384826113" lon="-2.1030709706"><ele>141.45</ele><time>2014-03-12T12:10:44Z</time></trkpt><trkpt lat="51.7386456393" lon="-2.1029950306"><ele>140.97</ele><time>2014-03-12T12:11:00Z</time></trkpt><trkpt lat="51.7388110142" lon="-2.1029054280"><ele>138.57</ele><time>2014-03-12T12:11:15Z</time></trkpt><trkpt lat="51.7388889659" lon="-2.1028068569"><ele>138.09</ele><time>2014-03-12T12:11:27Z</time></trkpt><trkpt lat="51.7389221583" lon="-2.1027387958"><ele>137.61</ele><time>2014-03-12T12:11:32Z</time></trkpt><trkpt lat="51.7389218230" lon="-2.1025457606"><ele>135.68</ele><time>2014-03-12T12:11:46Z</time></trkpt><trkpt lat="51.7389291991" lon="-2.1025057789"><ele>135.20</ele><time>2014-03-12T12:11:50Z</time></trkpt><trkpt lat="51.7389155366" lon="-2.1023098100"><ele>133.28</ele><time>2014-03-12T12:12:04Z</time></trkpt><trkpt lat="51.7389171291" lon="-2.1022949740"><ele>133.76</ele><time>2014-03-12T12:12:20Z</time></trkpt><trkpt lat="51.7389193084" lon="-2.1022458561"><ele>132.80</ele><time>2014-03-12T12:12:40Z</time></trkpt><trkpt lat="51.7389017064" lon="-2.1021506377"><ele>131.84</ele><time>2014-03-12T12:12:55Z</time></trkpt><trkpt lat="51.7388100922" lon="-2.1019576024"><ele>130.40</ele><time>2014-03-12T12:13:07Z</time></trkpt><trkpt lat="51.7387724575" lon="-2.1019099932"><ele>130.40</ele><time>2014-03-12T12:13:10Z</time></trkpt><trkpt lat="51.7386857048" lon="-2.1018611267"><ele>129.92</ele><time>2014-03-12T12:13:17Z</time></trkpt><trkpt lat="51.7386661749" lon="-2.1018371545"><ele>129.92</ele><time>2014-03-12T12:13:19Z</time></trkpt><trkpt lat="51.7385254428" lon="-2.1016901359"><ele>127.99</ele><time>2014-03-12T12:13:33Z</time></trkpt><trkpt lat="51.7384054977" lon="-2.1015551034"><ele>127.03</ele><time>2014-03-12T12:13:44Z</time></trkpt><trkpt lat="51.7382836249" lon="-2.1014538500"><ele>126.55</ele><time>2014-03-12T12:13:56Z</time></trkpt><trkpt lat="51.7382106185" lon="-2.1013755631"><ele>126.07</ele><time>2014-03-12T12:14:03Z</time></trkpt><trkpt lat="51.7381682061" lon="-2.1012451407"><ele>124.63</ele><time>2014-03-12T12:14:10Z</time></trkpt><trkpt lat="51.7382219341" lon="-2.1010241937"><ele>122.71</ele><time>2014-03-12T12:14:23Z</time></trkpt><trkpt lat="51.7382462416" lon="-2.1009864751"><ele>122.22</ele><time>2014-03-12T12:14:26Z</time></trkpt><trkpt lat="51.7383371852" lon="-2.1007849742"><ele>121.26</ele><time>2014-03-12T12:14:40Z</time></trkpt><trkpt lat="51.7384032346" lon="-2.1006513666"><ele>121.74</ele><time>2014-03-12T12:14:53Z</time></trkpt><trkpt lat="51.7384227645" lon="-2.1005860716"><ele>120.78</ele><time>2014-03-12T12:15:01Z</time></trkpt><trkpt lat="51.7384441383" lon="-2.1004833933"><ele>120.78</ele><time>2014-03-12T12:15:08Z</time></trkpt><trkpt lat="51.7384510115" lon="-2.1004144941"><ele>121.74</ele><time>2014-03-12T12:15:12Z</time></trkpt><trkpt lat="51.7384401988" lon="-2.1003797092"><ele>120.78</ele><time>2014-03-12T12:15:14Z</time></trkpt><trkpt lat="51.7384203337" lon="-2.1003214549"><ele>120.78</ele><time>2014-03-12T12:15:18Z</time></trkpt><trkpt lat="51.7383795977" lon="-2.1002426650"><ele>121.26</ele><time>2014-03-12T12:15:24Z</time></trkpt><trkpt lat="51.7383204214" lon="-2.1001671441"><ele>121.74</ele><time>2014-03-12T12:15:30Z</time></trkpt><trkpt lat="51.7382050864" lon="-2.1000308543"><ele>122.71</ele><time>2014-03-12T12:15:42Z</time></trkpt><trkpt lat="51.7380683776" lon="-2.0998684131"><ele>123.19</ele><time>2014-03-12T12:15:55Z</time></trkpt><trkpt lat="51.7379535455" lon="-2.0998086501"><ele>124.15</ele><time>2014-03-12T12:16:07Z</time></trkpt><trkpt lat="51.7379166652" lon="-2.0998117514"><ele>123.67</ele><time>2014-03-12T12:16:20Z</time></trkpt><trkpt lat="51.7378405575" lon="-2.0997429360"><ele>124.15</ele><time>2014-03-12T12:16:32Z</time></trkpt><trkpt lat="51.7377530504" lon="-2.0996665768"><ele>125.11</ele><time>2014-03-12T12:16:43Z</time></trkpt><trkpt lat="51.7376641184" lon="-2.0996447001"><ele>126.07</ele><time>2014-03-12T12:17:01Z</time></trkpt><trkpt lat="51.7375957221" lon="-2.0996548422"><ele>127.03</ele><time>2014-03-12T12:17:09Z</time></trkpt><trkpt lat="51.7374128290" lon="-2.0996542554"><ele>128.95</ele><time>2014-03-12T12:17:26Z</time></trkpt><trkpt lat="51.7372520640" lon="-2.0996841788"><ele>128.95</ele><time>2014-03-12T12:17:40Z</time></trkpt><trkpt lat="51.7371955700" lon="-2.0997024514"><ele>128.95</ele><time>2014-03-12T12:17:57Z</time></trkpt><trkpt lat="51.7371392436" lon="-2.0996923931"><ele>128.47</ele><time>2014-03-12T12:18:14Z</time></trkpt><trkpt lat="51.7370172031" lon="-2.0996834245"><ele>128.95</ele><time>2014-03-12T12:18:25Z</time></trkpt><trkpt lat="51.7369449511" lon="-2.0996602066"><ele>129.43</ele><time>2014-03-12T12:18:37Z</time></trkpt><trkpt lat="51.7368887085" lon="-2.0996308699"><ele>128.95</ele><time>2014-03-12T12:18:54Z</time></trkpt><trkpt lat="51.7368126847" lon="-2.0996022876"><ele>129.43</ele><time>2014-03-12T12:19:03Z</time></trkpt><trkpt lat="51.7367417738" lon="-2.0995607972"><ele>129.92</ele><time>2014-03-12T12:19:15Z</time></trkpt><trkpt lat="51.7366157938" lon="-2.0994469710"><ele>131.84</ele><time>2014-03-12T12:19:29Z</time></trkpt><trkpt lat="51.7365058232" lon="-2.0993573684"><ele>133.28</ele><time>2014-03-12T12:19:41Z</time></trkpt><trkpt lat="51.7363938410" lon="-2.0992359985"><ele>134.72</ele><time>2014-03-12T12:19:54Z</time></trkpt><trkpt lat="51.7363488302" lon="-2.0991709549"><ele>136.64</ele><time>2014-03-12T12:20:09Z</time></trkpt><trkpt lat="51.7362469062" lon="-2.0990581345"><ele>138.09</ele><time>2014-03-12T12:20:26Z</time></trkpt><trkpt lat="51.7360909190" lon="-2.0989211742"><ele>140.01</ele><time>2014-03-12T12:20:41Z</time></trkpt><trkpt lat="51.7359915096" lon="-2.0988431387"><ele>141.45</ele><time>2014-03-12T12:20:54Z</time></trkpt><trkpt lat="51.7358710617" lon="-2.0987314079"><ele>142.41</ele><time>2014-03-12T12:21:07Z</time></trkpt><trkpt lat="51.7357696407" lon="-2.0987032447"><ele>142.41</ele><time>2014-03-12T12:21:20Z</time></trkpt><trkpt lat="51.7357602529" lon="-2.0987014845"><ele>142.41</ele><time>2014-03-12T12:21:21Z</time></trkpt><trkpt lat="51.7356647830" lon="-2.0987379458"><ele>142.41</ele><time>2014-03-12T12:21:36Z</time></trkpt><trkpt lat="51.7355514597" lon="-2.0987193380"><ele>142.41</ele><time>2014-03-12T12:21:50Z</time></trkpt><trkpt lat="51.7353792954" lon="-2.0986827090"><ele>142.41</ele><time>2014-03-12T12:22:01Z</time></trkpt><trkpt lat="51.7352181952" lon="-2.0986439008"><ele>142.41</ele><time>2014-03-12T12:22:15Z</time></trkpt><trkpt lat="51.7350593582" lon="-2.0986355189"><ele>142.41</ele><time>2014-03-12T12:22:30Z</time></trkpt><trkpt lat="51.7349074781" lon="-2.0986043382"><ele>141.93</ele><time>2014-03-12T12:22:44Z</time></trkpt><trkpt lat="51.7347766366" lon="-2.0985904243"><ele>142.41</ele><time>2014-03-12T12:22:58Z</time></trkpt><trkpt lat="51.7346260138" lon="-2.0985401329"><ele>142.41</ele><time>2014-03-12T12:23:10Z</time></trkpt><trkpt lat="51.7344790790" lon="-2.0984442439"><ele>141.93</ele><time>2014-03-12T12:23:25Z</time></trkpt><trkpt lat="51.7343024723" lon="-2.0983685553"><ele>141.93</ele><time>2014-03-12T12:23:38Z</time></trkpt><trkpt lat="51.7341618240" lon="-2.0982658770"><ele>141.93</ele><time>2014-03-12T12:23:51Z</time></trkpt><trkpt lat="51.7340055015" lon="-2.0981269889"><ele>141.45</ele><time>2014-03-12T12:24:10Z</time></trkpt><trkpt lat="51.7338327505" lon="-2.0980800502"><ele>141.93</ele><time>2014-03-12T12:24:27Z</time></trkpt><trkpt lat="51.7336581554" lon="-2.0980829839"><ele>141.45</ele><time>2014-03-12T12:24:43Z</time></trkpt><trkpt lat="51.7335846461" lon="-2.0980707463"><ele>141.45</ele><time>2014-03-12T12:24:59Z</time></trkpt><trkpt lat="51.7335114721" lon="-2.0981011726"><ele>141.45</ele><time>2014-03-12T12:25:13Z</time></trkpt><trkpt lat="51.7333769426" lon="-2.0980672259"><ele>141.45</ele><time>2014-03-12T12:25:26Z</time></trkpt><trkpt lat="51.7333656270" lon="-2.0980689023"><ele>141.45</ele><time>2014-03-12T12:25:27Z</time></trkpt><trkpt lat="51.7332002521" lon="-2.0980846602"><ele>141.45</ele><time>2014-03-12T12:25:41Z</time></trkpt><trkpt lat="51.7330732662" lon="-2.0980566647"><ele>140.97</ele><time>2014-03-12T12:25:54Z</time></trkpt><trkpt lat="51.7329886090" lon="-2.0980803017"><ele>140.49</ele><time>2014-03-12T12:26:04Z</time></trkpt><trkpt lat="51.7328640539" lon="-2.0980725903"><ele>140.49</ele><time>2014-03-12T12:26:17Z</time></trkpt><trkpt lat="51.7327677459" lon="-2.0980958082"><ele>140.01</ele><time>2014-03-12T12:26:28Z</time></trkpt><trkpt lat="51.7326794006" lon="-2.0980372187"><ele>140.01</ele><time>2014-03-12T12:26:43Z</time></trkpt><trkpt lat="51.7326787300" lon="-2.0980256516"><ele>139.53</ele><time>2014-03-12T12:26:55Z</time></trkpt><trkpt lat="51.7326408438" lon="-2.0980236400"><ele>138.57</ele><time>2014-03-12T12:26:59Z</time></trkpt><trkpt lat="51.7324810009" lon="-2.0980681479"><ele>137.61</ele><time>2014-03-12T12:27:12Z</time></trkpt><trkpt lat="51.7322806735" lon="-2.0981710777"><ele>136.16</ele><time>2014-03-12T12:27:27Z</time></trkpt><trkpt lat="51.7322012968" lon="-2.0981926192"><ele>136.16</ele><time>2014-03-12T12:27:34Z</time></trkpt><trkpt lat="51.7321487423" lon="-2.0982307568"><ele>135.68</ele><time>2014-03-12T12:27:38Z</time></trkpt><trkpt lat="51.7320236843" lon="-2.0983014163"><ele>136.16</ele><time>2014-03-12T12:27:46Z</time></trkpt><trkpt lat="51.7318680324" lon="-2.0983667113"><ele>136.64</ele><time>2014-03-12T12:27:57Z</time></trkpt><trkpt lat="51.7318331636" lon="-2.0983722433"><ele>136.16</ele><time>2014-03-12T12:28:00Z</time></trkpt><trkpt lat="51.7317292280" lon="-2.0983577427"><ele>137.13</ele><time>2014-03-12T12:28:11Z</time></trkpt><trkpt lat="51.7316659447" lon="-2.0983068645"><ele>138.09</ele><time>2014-03-12T12:28:18Z</time></trkpt><trkpt lat="51.7315945309" lon="-2.0982410666"><ele>138.09</ele><time>2014-03-12T12:28:26Z</time></trkpt><trkpt lat="51.7315382045" lon="-2.0981494524"><ele>139.05</ele><time>2014-03-12T12:28:36Z</time></trkpt><trkpt lat="51.7314293236" lon="-2.0978845004"><ele>139.05</ele><time>2014-03-12T12:28:47Z</time></trkpt><trkpt lat="51.7313436605" lon="-2.0977275074"><ele>139.53</ele><time>2014-03-12T12:28:58Z</time></trkpt><trkpt lat="51.7313227057" lon="-2.0976416767"><ele>139.05</ele><time>2014-03-12T12:29:03Z</time></trkpt><trkpt lat="51.7313001584" lon="-2.0975293592"><ele>139.05</ele><time>2014-03-12T12:29:18Z</time></trkpt><trkpt lat="51.7312834784" lon="-2.0974643994"><ele>138.09</ele><time>2014-03-12T12:29:34Z</time></trkpt><trkpt lat="51.7312129866" lon="-2.0972710289"><ele>138.09</ele><time>2014-03-12T12:29:45Z</time></trkpt><trkpt lat="51.7312178481" lon="-2.0970740542"><ele>137.61</ele><time>2014-03-12T12:29:57Z</time></trkpt><trkpt lat="51.7311691493" lon="-2.0970172249"><ele>137.13</ele><time>2014-03-12T12:30:02Z</time></trkpt><trkpt lat="51.7311133258" lon="-2.0967428014"><ele>136.16</ele><time>2014-03-12T12:30:10Z</time></trkpt><trkpt lat="51.7311041895" lon="-2.0966930967"><ele>136.16</ele><time>2014-03-12T12:30:12Z</time></trkpt><trkpt lat="51.7310179397" lon="-2.0963520370"><ele>136.16</ele><time>2014-03-12T12:30:26Z</time></trkpt><trkpt lat="51.7310001701" lon="-2.0961765200"><ele>136.64</ele><time>2014-03-12T12:30:34Z</time></trkpt><trkpt lat="51.7309739348" lon="-2.0960535575"><ele>136.64</ele><time>2014-03-12T12:30:41Z</time></trkpt><trkpt lat="51.7309419997" lon="-2.0959932078"><ele>136.64</ele><time>2014-03-12T12:30:55Z</time></trkpt><trkpt lat="51.7309224699" lon="-2.0959645417"><ele>137.13</ele><time>2014-03-12T12:31:01Z</time></trkpt><trkpt lat="51.7309136689" lon="-2.0958430041"><ele>137.61</ele><time>2014-03-12T12:31:12Z</time></trkpt><trkpt lat="51.7309141718" lon="-2.0957209636"><ele>137.61</ele><time>2014-03-12T12:31:18Z</time></trkpt><trkpt lat="51.7309085559" lon="-2.0955800638"><ele>138.09</ele><time>2014-03-12T12:31:28Z</time></trkpt><trkpt lat="51.7308723461" lon="-2.0954086538"><ele>139.05</ele><time>2014-03-12T12:31:40Z</time></trkpt><trkpt lat="51.7308100685" lon="-2.0952917263"><ele>140.49</ele><time>2014-03-12T12:31:52Z</time></trkpt><trkpt lat="51.7307933047" lon="-2.0952651557"><ele>140.49</ele><time>2014-03-12T12:31:54Z</time></trkpt><trkpt lat="51.7307415046" lon="-2.0950661693"><ele>142.41</ele><time>2014-03-12T12:32:07Z</time></trkpt><trkpt lat="51.7306809034" lon="-2.0948803425"><ele>144.34</ele><time>2014-03-12T12:32:21Z</time></trkpt><trkpt lat="51.7306874413" lon="-2.0947659295"><ele>144.34</ele><time>2014-03-12T12:32:24Z</time></trkpt><trkpt lat="51.7305789795" lon="-2.0944098663"><ele>146.74</ele><time>2014-03-12T12:32:40Z</time></trkpt><trkpt lat="51.7305355612" lon="-2.0943377819"><ele>147.22</ele><time>2014-03-12T12:32:46Z</time></trkpt><trkpt lat="51.7304195557" lon="-2.0941517036"><ele>148.66</ele><time>2014-03-12T12:32:59Z</time></trkpt><trkpt lat="51.7303354014" lon="-2.0939842332"><ele>149.62</ele><time>2014-03-12T12:33:12Z</time></trkpt><trkpt lat="51.7302136961" lon="-2.0938402321"><ele>148.18</ele><time>2014-03-12T12:33:25Z</time></trkpt><trkpt lat="51.7301235069" lon="-2.0937367994"><ele>146.74</ele><time>2014-03-12T12:33:34Z</time></trkpt><trkpt lat="51.7300195713" lon="-2.0935829915"><ele>144.82</ele><time>2014-03-12T12:33:46Z</time></trkpt><trkpt lat="51.7299800925" lon="-2.0934983343"><ele>143.85</ele><time>2014-03-12T12:33:51Z</time></trkpt><trkpt lat="51.7299184017" lon="-2.0933809038"><ele>142.41</ele><time>2014-03-12T12:34:02Z</time></trkpt><trkpt lat="51.7299008835" lon="-2.0933291875"><ele>141.45</ele><time>2014-03-12T12:34:05Z</time></trkpt><trkpt lat="51.7298224289" lon="-2.0931360684"><ele>139.53</ele><time>2014-03-12T12:34:17Z</time></trkpt><trkpt lat="51.7298008036" lon="-2.0930830110"><ele>137.61</ele><time>2014-03-12T12:34:28Z</time></trkpt><trkpt lat="51.7297894880" lon="-2.0930424426"><ele>135.68</ele><time>2014-03-12T12:34:37Z</time></trkpt><trkpt lat="51.7297495902" lon="-2.0929578692"><ele>133.76</ele><time>2014-03-12T12:34:47Z</time></trkpt><trkpt lat="51.7297200859" lon="-2.0929206535"><ele>133.76</ele><time>2014-03-12T12:34:49Z</time></trkpt><trkpt lat="51.7296516057" lon="-2.0927530155"><ele>132.80</ele><time>2014-03-12T12:34:56Z</time></trkpt><trkpt lat="51.7296080198" lon="-2.0926548634"><ele>132.32</ele><time>2014-03-12T12:35:00Z</time></trkpt><trkpt lat="51.7295542080" lon="-2.0924319047"><ele>130.88</ele><time>2014-03-12T12:35:13Z</time></trkpt><trkpt lat="51.7295331694" lon="-2.0922561362"><ele>128.95</ele><time>2014-03-12T12:35:28Z</time></trkpt><trkpt lat="51.7295116279" lon="-2.0918987319"><ele>126.07</ele><time>2014-03-12T12:35:42Z</time></trkpt><trkpt lat="51.7295428924" lon="-2.0917443372"><ele>125.11</ele><time>2014-03-12T12:35:51Z</time></trkpt><trkpt lat="51.7295851372" lon="-2.0916147530"><ele>123.19</ele><time>2014-03-12T12:35:59Z</time></trkpt><trkpt lat="51.7296007276" lon="-2.0915370528"><ele>122.71</ele><time>2014-03-12T12:36:03Z</time></trkpt><trkpt lat="51.7296350095" lon="-2.0913105737"><ele>120.30</ele><time>2014-03-12T12:36:16Z</time></trkpt><trkpt lat="51.7296658549" lon="-2.0912579354"><ele>118.86</ele><time>2014-03-12T12:36:28Z</time></trkpt><trkpt lat="51.7296638433" lon="-2.0911260042"><ele>117.90</ele><time>2014-03-12T12:36:39Z</time></trkpt><trkpt lat="51.7296331655" lon="-2.0909860265"><ele>116.46</ele><time>2014-03-12T12:36:48Z</time></trkpt><trkpt lat="51.7295849696" lon="-2.0906567015"><ele>113.57</ele><time>2014-03-12T12:37:02Z</time></trkpt><trkpt lat="51.7295445688" lon="-2.0904936735"><ele>112.13</ele><time>2014-03-12T12:37:13Z</time></trkpt><trkpt lat="51.7294912599" lon="-2.0903609041"><ele>110.69</ele><time>2014-03-12T12:37:23Z</time></trkpt><trkpt lat="51.7294207681" lon="-2.0901057590"><ele>109.73</ele><time>2014-03-12T12:37:35Z</time></trkpt><trkpt lat="51.7293973826" lon="-2.0900487620"><ele>109.25</ele><time>2014-03-12T12:37:38Z</time></trkpt><trkpt lat="51.7293752544" lon="-2.0899320859"><ele>108.77</ele><time>2014-03-12T12:37:43Z</time></trkpt><trkpt lat="51.7293649446" lon="-2.0898599178"><ele>108.29</ele><time>2014-03-12T12:37:46Z</time></trkpt><trkpt lat="51.7293705605" lon="-2.0897666272"><ele>108.29</ele><time>2014-03-12T12:37:50Z</time></trkpt><trkpt lat="51.7294607498" lon="-2.0895451773"><ele>108.29</ele><time>2014-03-12T12:38:03Z</time></trkpt><trkpt lat="51.7295790184" lon="-2.0894836541"><ele>109.25</ele><time>2014-03-12T12:38:16Z</time></trkpt><trkpt lat="51.7296434753" lon="-2.0894782897"><ele>109.73</ele><time>2014-03-12T12:38:29Z</time></trkpt><trkpt lat="51.7296412122" lon="-2.0894786250"><ele>109.73</ele><time>2014-03-12T12:38:33Z</time></trkpt></trkseg></trk></gpx>